Time,TemperatureF,DewpointF,PressureIn,WindDirection,WindDirectionDegrees,WindSpeedMPH,WindSpeedGustMPH,Humidity,HourlyPrecipIn,Conditions,Clouds,dailyrainin,SoftwareType,DateUTC
2013-05-22 01:32:00,39.0,19.0,-100.00,WNW,289,4.0,6.0,43,-99.99,,,-99.99,,2013-05-22 07:32:00,
2013-05-22 02:32:00,39.0,18.0,-100.00,West,265,4.0,6.0,42,-99.99,,,-99.99,,2013-05-22 08:32:00,
2013-05-22 03:33:00,36.0,15.0,-100.00,West,280,6.0,10.0,41,-99.99,,,-99.99,,2013-05-22 09:33:00,
2013-05-22 04:33:00,34.0,13.0,-100.00,West,278,6.0,10.0,41,-99.99,,,-99.99,,2013-05-22 10:33:00,
2013-05-22 05:32:00,35.0,13.0,-100.00,West,266,5.0,8.0,40,-99.99,,,-99.99,,2013-05-22 11:32:00,
2013-05-22 06:32:00,34.0,11.0,-100.00,WSW,253,7.0,11.0,39,-99.99,,,-99.99,,2013-05-22 12:32:00,
2013-05-22 08:32:00,30.0,7.0,-100.00,SSW,211,5.0,8.0,38,-99.99,,,-99.99,,2013-05-22 14:32:00,
2013-05-22 09:33:00,30.0,8.0,-100.00,SSW,201,5.0,8.0,38,-99.99,,,-99.99,,2013-05-22 15:33:00,
2013-05-22 10:33:00,29.0,7.0,-100.00,WSW,242,7.0,10.0,37,-99.99,,,-99.99,,2013-05-22 16:33:00,
2013-05-22 11:33:00,28.0,6.0,-100.00,WSW,241,7.0,10.0,37,-99.99,,,-99.99,,2013-05-22 17:33:00,
2013-05-22 12:34:00,28.0,6.0,-100.00,SW,231,8.0,11.0,37,-99.99,,,-99.99,,2013-05-22 18:34:00,
2013-05-22 13:32:00,28.0,5.0,-100.00,SW,216,6.0,9.0,37,-99.99,,,-99.99,,2013-05-22 19:32:00,
2013-05-22 14:32:00,29.0,7.0,-100.00,SSW,206,7.0,11.0,38,-99.99,,,-99.99,,2013-05-22 20:32:00,
2013-05-22 15:33:00,29.0,7.0,-100.00,SW,217,6.0,10.0,37,-99.99,,,-99.99,,2013-05-22 21:33:00,
2013-05-22 17:00:00,28.0,6.0,-100.00,SSW,208,8.0,15.0,37,-99.99,,,-99.99,,2013-05-22 23:00:00,
2013-05-22 17:32:00,28.0,6.0,-100.00,SSW,208,8.0,15.0,37,-99.99,,,-99.99,,2013-05-22 23:32:00,
2013-05-22 17:42:00,28.0,6.0,-100.00,SSW,208,8.0,15.0,37,-99.99,,,-99.99,,2013-05-22 23:42:00,
2013-05-22 17:52:00,28.0,6.0,-100.00,SSW,208,8.0,15.0,37,-99.99,,,-99.99,,2013-05-22 23:52:00,
2013-05-22 18:00:00,29.0,7.0,-100.00,SSW,213,6.0,10.0,38,-99.99,,,-99.99,,2013-05-23 00:00:00,
2013-05-22 18:32:00,29.0,7.0,-100.00,SSW,213,6.0,10.0,38,-99.99,,,-99.99,,2013-05-23 00:32:00,
2013-05-22 18:42:00,29.0,7.0,-100.00,SSW,213,6.0,10.0,38,-99.99,,,-99.99,,2013-05-23 00:42:00,
2013-05-22 18:52:00,29.0,7.0,-100.00,SSW,213,6.0,10.0,38,-99.99,,,-99.99,,2013-05-23 00:52:00,
2013-05-22 19:00:00,30.0,7.0,-100.00,SW,233,8.0,13.0,38,-99.99,,,-99.99,,2013-05-23 01:00:00,
2013-05-22 19:32:00,30.0,7.0,-100.00,SW,233,8.0,13.0,38,-99.99,,,-99.99,,2013-05-23 01:32:00,
2013-05-22 19:42:00,30.0,7.0,-100.00,SW,233,8.0,13.0,38,-99.99,,,-99.99,,2013-05-23 01:42:00,
2013-05-22 19:52:00,30.0,7.0,-100.00,SW,233,8.0,13.0,38,-99.99,,,-99.99,,2013-05-23 01:52:00,
2013-05-22 20:00:00,29.0,7.0,-100.00,SW,230,6.0,8.0,38,-99.99,,,-99.99,,2013-05-23 02:00:00,
2013-05-22 20:32:00,29.0,7.0,-100.00,SW,230,6.0,8.0,38,-99.99,,,-99.99,,2013-05-23 02:32:00,
2013-05-22 20:42:00,29.0,7.0,-100.00,SW,230,6.0,8.0,38,-99.99,,,-99.99,,2013-05-23 02:42:00,
2013-05-22 20:51:00,29.0,7.0,-100.00,SW,230,6.0,8.0,38,-99.99,,,-99.99,,2013-05-23 02:51:00,
2013-05-22 21:00:00,29.0,6.0,-100.00,SW,219,4.0,10.0,36,-99.99,,,-99.99,,2013-05-23 03:00:00,
2013-05-22 21:33:00,29.0,6.0,-100.00,SW,219,4.0,10.0,36,-99.99,,,-99.99,,2013-05-23 03:33:00,
2013-05-22 21:43:00,29.0,6.0,-100.00,SW,219,4.0,10.0,36,-99.99,,,-99.99,,2013-05-23 03:43:00,
2013-05-22 21:53:00,29.0,6.0,-100.00,SW,219,4.0,10.0,36,-99.99,,,-99.99,,2013-05-23 03:53:00,
2013-05-22 22:00:00,27.0,4.0,-100.00,South,183,3.0,5.0,36,-99.99,,,-99.99,,2013-05-23 04:00:00,
2013-05-22 22:33:00,27.0,4.0,-100.00,South,183,3.0,5.0,36,-99.99,,,-99.99,,2013-05-23 04:33:00,
2013-05-22 22:43:00,27.0,4.0,-100.00,South,183,3.0,5.0,36,-99.99,,,-99.99,,2013-05-23 04:43:00,
2013-05-22 22:52:00,27.0,4.0,-100.00,South,183,3.0,5.0,36,-99.99,,,-99.99,,2013-05-23 04:52:00,
2013-05-22 23:00:00,26.0,3.0,-100.00,ESE,107,4.0,6.0,36,-99.99,,,-99.99,,2013-05-23 05:00:00,
2013-05-22 23:32:00,26.0,3.0,-100.00,ESE,107,4.0,6.0,36,-99.99,,,-99.99,,2013-05-23 05:32:00,
2013-05-22 23:43:00,26.0,3.0,-100.00,ESE,107,4.0,6.0,36,-99.99,,,-99.99,,2013-05-23 05:43:00,
2013-05-22 23:52:00,26.0,3.0,-100.00,ESE,107,4.0,6.0,36,-99.99,,,-99.99,,2013-05-23 05:52:00,